Spearfish, SD (57783)

7:30 AM MST on February 11, 2016 (GMT -0700)
TMWC | | Change Station
CLOSE
Current Station
Personal Weather Station
Location: Spearfish, SD
Elevation: 3685 ft
Nearby Weather Stations

Elev 3685 ft 44.49 °N, 103.87 °W | Updated 12 seconds ago

Overcast
Overcast
50.5 °F
Feels Like 50.5 °F
N
19.6
Wind Variable Wind from WNW
Gusts 19.6 mph

Today
High -- | Low -- °F
--% Chance of Precip.
Yesterday
High -- | Low -- °F
Precip. -- in
Pressure 30.01 in
Visibility 10.0 miles
Clouds Overcast 8000 ft
Dew Point 27 °F
Humidity 40%
Rainfall 0.00 in
Snow Depth Not available.
7:01 AM 5:18 PM
Waxing Crescent, 12% visible
METAR KSPF 111415Z AUTO 29012G20KT 10SM OVC080 09/M04 A3001 RMK AO2
Pressure 30.01 in
Visibility 10.0 miles
Clouds Overcast 8000 ft
Dew Point 27 °F
Humidity 40%
Rainfall 0.00 in
Snow Depth Not available.
7:01 AM 5:18 PM
Waxing Crescent, 12% visible
METAR KSPF 111415Z AUTO 29012G20KT 10SM OVC080 09/M04 A3001 RMK AO2

10-Day Weather Forecast

Almanac

Astronomy

Feb. 11, 2016 Rise Set
Actual Time
Civil Twilight
Nautical Twilight
Astronomical Twilight
Moon
Length of Visible Light
Length of Day
Tomorrow will be .
, % of the Moon is Illuminated

Today's Extremes

State Highs State Lows

Community

WunderPhotos

Upload Photos

1,892,048 photos uploaded!

WunderBlog® & News

Nearby

Air Quality

  Air Quality AQ Index Pollutant
Not available.

Snow Depth

Station Depth Elevation

Earthquake Activity

City Distance Mag. Time & Date
Minimum magnitude displayed is 2.5.

Coastal Water Temperatures

Place Temperature

Stations

Nearby Weather Stations

Station Location Temp. Windchill Dew Point Humidity Wind Precip. Elev Updated Type
                   

Watches & Warnings

There are currently no watches in effect.